createdAt,value
2023-04-24T15:49:11.749Z,47.11
2023-04-24T15:53:06.479Z,47.69
2023-04-24T15:54:06.452Z,46.98
2023-04-24T15:55:06.451Z,47.28
2023-04-24T15:56:06.437Z,48.72
2023-04-24T15:57:06.465Z,47.89
2023-04-24T15:58:06.427Z,47.89
2023-04-24T15:59:06.424Z,47.69
2023-04-24T16:00:06.415Z,46.48
2023-04-24T16:01:06.432Z,46.28
2023-04-24T16:02:06.402Z,46.07
2023-04-24T16:03:08.418Z,45.97
2023-04-24T16:04:06.574Z,45.49
2023-04-24T16:05:06.386Z,45.18
2023-04-24T16:06:06.383Z,46.60
2023-04-24T16:07:06.386Z,47.11
2023-04-24T16:08:06.435Z,46.70
2023-04-24T16:09:06.368Z,47.11
2023-04-24T16:10:06.365Z,47.71
2023-04-24T16:11:06.367Z,47.71
2023-04-24T16:12:06.356Z,47.00
2023-04-24T16:13:06.363Z,48.44
2023-04-24T16:14:06.799Z,47.74
2023-04-24T16:15:06.345Z,47.74
2023-04-24T16:16:06.375Z,47.83
2023-04-24T16:17:06.327Z,46.72
2023-04-24T16:18:06.372Z,47.43
2023-04-24T16:19:06.321Z,47.43
2023-04-24T16:20:06.318Z,47.23
2023-04-24T16:21:06.329Z,46.32
2023-04-24T16:22:06.318Z,46.12
2023-04-24T16:23:06.336Z,46.32
2023-04-24T16:24:06.300Z,47.23
2023-04-24T16:25:06.296Z,48.24
2023-04-24T16:26:06.308Z,47.74
2023-04-24T16:27:06.286Z,47.33
2023-04-24T16:28:06.297Z,47.83
2023-04-24T16:29:06.274Z,47.33
2023-04-24T16:30:06.283Z,47.74
2023-04-24T16:31:06.363Z,47.25
2023-04-24T16:32:06.292Z,47.96
2023-04-24T16:33:06.304Z,49.07
2023-04-24T16:34:06.255Z,49.80
2023-04-24T16:35:06.249Z,50.11
2023-04-24T16:36:07.639Z,51.42
2023-04-24T16:37:06.610Z,51.75
2023-04-24T16:38:06.245Z,51.86
2023-04-24T16:39:06.251Z,52.56
2023-04-24T16:40:06.251Z,53.58
2023-04-24T16:41:06.254Z,53.98
2023-04-24T16:42:06.214Z,54.49
2023-04-24T16:43:06.212Z,54.82
2023-04-24T16:44:06.222Z,55.15
2023-04-24T16:45:06.210Z,55.32
2023-04-24T16:46:06.199Z,56.34
2023-04-24T16:47:06.257Z,56.77
2023-04-24T16:48:06.274Z,57.60
2023-04-24T16:49:06.216Z,58.22
2023-04-24T16:50:06.183Z,58.72
2023-04-24T16:51:06.173Z,58.42
2023-04-24T16:52:06.166Z,58.62
2023-04-24T16:53:06.188Z,58.65
2023-04-24T16:54:06.163Z,59.46
2023-04-24T16:55:06.165Z,59.97
2023-04-24T16:56:06.153Z,60.07
2023-04-24T16:57:06.150Z,59.48
2023-04-24T16:58:06.144Z,59.59
2023-04-24T16:59:06.138Z,60.40
2023-04-24T17:00:06.129Z,60.60
2023-04-24T17:01:06.215Z,60.10
2023-04-24T17:02:06.150Z,60.74
2023-04-24T17:03:06.328Z,60.94
2023-04-24T17:04:06.230Z,61.65
2023-04-24T17:05:06.127Z,61.34
2023-04-24T17:06:06.106Z,61.85
2023-04-24T17:07:06.100Z,62.05
2023-04-24T17:08:06.108Z,61.85
2023-04-24T17:09:06.095Z,62.56
2023-04-24T17:10:06.102Z,62.66
2023-04-24T17:11:06.075Z,62.56
2023-04-24T17:12:06.078Z,62.87
2023-04-24T17:13:06.070Z,62.66
2023-04-24T17:14:06.089Z,62.46
2023-04-24T17:15:06.055Z,63.28
2023-04-24T17:16:06.084Z,63.20
2023-04-24T17:17:06.052Z,63.17
2023-04-24T17:18:06.109Z,63.60
2023-04-24T17:19:06.052Z,63.91
2023-04-24T17:20:18.722Z,63.20
2023-04-24T17:21:06.037Z,63.20
2023-04-24T17:22:06.641Z,64.22
2023-04-24T17:23:06.052Z,64.96
2023-04-24T17:24:06.010Z,64.86
2023-04-24T17:25:06.019Z,64.52
2023-04-24T17:26:06.012Z,65.06
2023-04-24T17:27:14.450Z,64.45
2023-04-24T17:28:05.984Z,64.73
2023-04-24T17:29:05.988Z,65.06
2023-04-24T17:30:05.974Z,66.18
2023-04-24T17:31:05.973Z,66.89
2023-04-24T17:32:06.105Z,66.79
2023-04-24T17:33:06.025Z,67.40
2023-04-24T17:34:05.955Z,66.72
2023-04-24T17:35:05.957Z,66.41
2023-04-24T17:36:06.038Z,67.33
2023-04-24T17:37:05.938Z,67.43
2023-04-24T17:38:05.938Z,67.94
2023-04-24T17:39:05.926Z,67.02
2023-04-24T17:40:05.921Z,67.02
2023-04-24T17:41:05.916Z,68.24
2023-04-24T17:42:05.928Z,67.22
2023-04-24T17:43:05.906Z,67.74
2023-04-24T17:44:05.897Z,67.57
2023-04-24T17:45:05.892Z,67.97
2023-04-24T17:46:05.909Z,67.26
2023-04-24T17:47:05.925Z,67.46
2023-04-24T17:48:05.927Z,67.29
2023-04-24T17:49:05.869Z,67.19
2023-04-24T17:50:05.872Z,66.99
2023-04-24T17:51:05.855Z,67.39
2023-04-24T17:52:05.859Z,67.29
2023-04-24T17:53:05.848Z,67.39
2023-04-24T17:54:05.840Z,67.29
2023-04-24T17:55:05.837Z,67.60
2023-04-24T17:56:05.830Z,67.60
2023-04-24T17:57:05.823Z,67.29
2023-04-24T17:58:05.816Z,66.88
2023-04-24T17:59:05.809Z,67.19
2023-04-24T18:00:05.803Z,66.68
2023-04-24T18:01:05.830Z,66.99
2023-04-24T18:02:05.809Z,67.29
2023-04-24T18:03:05.892Z,66.68
2023-04-24T18:04:06.085Z,66.88
2023-04-24T18:05:05.792Z,65.36
2023-04-24T18:06:05.766Z,65.25
2023-04-24T18:07:05.761Z,66.61
2023-04-24T18:08:05.755Z,65.66
2023-04-24T18:09:05.758Z,65.28
2023-04-24T18:10:05.747Z,65.69
2023-04-24T18:11:05.737Z,65.69
2023-04-24T18:12:05.730Z,64.78
2023-04-24T18:13:05.732Z,64.98
2023-04-24T18:14:05.712Z,65.83
2023-04-24T18:15:13.718Z,65.42
2023-04-24T18:16:05.776Z,66.64
2023-04-24T18:17:05.700Z,65.92
2023-04-24T18:18:05.706Z,65.42
2023-04-24T18:19:05.689Z,65.31
2023-04-24T18:20:05.687Z,65.01
2023-04-24T18:21:05.673Z,65.31
2023-04-24T18:22:05.668Z,64.94
2023-04-24T18:23:05.667Z,65.95
2023-04-24T18:24:05.654Z,64.73
2023-04-24T18:25:05.652Z,65.14
2023-04-24T18:26:05.654Z,64.32
2023-04-24T18:27:05.635Z,65.07
2023-04-24T18:28:05.632Z,64.87
2023-04-24T18:29:05.624Z,65.37
2023-04-24T18:30:05.616Z,65.07
2023-04-24T18:31:05.697Z,64.56
2023-04-24T18:32:05.607Z,65.07
2023-04-24T18:33:05.647Z,65.00
2023-04-24T18:34:05.588Z,65.51
2023-04-24T18:35:05.590Z,65.92
2023-04-24T18:36:05.581Z,65.61
2023-04-24T18:37:05.629Z,65.84
2023-04-24T18:38:05.577Z,66.25
2023-04-24T18:39:05.554Z,66.97
2023-04-24T18:40:05.550Z,66.97
2023-04-24T18:41:05.591Z,66.97
2023-04-24T18:42:05.535Z,67.27
2023-04-24T18:43:05.546Z,66.66
2023-04-24T18:44:05.517Z,66.90
2023-04-24T18:45:05.517Z,67.07
2023-04-24T18:46:05.509Z,66.90
2023-04-24T18:47:05.560Z,67.21
2023-04-24T18:48:05.794Z,67.21
2023-04-24T18:49:05.493Z,66.69
2023-04-24T18:50:05.486Z,67.41
2023-04-24T18:51:05.487Z,67.54
2023-04-24T18:52:05.462Z,67.75
2023-04-24T18:53:05.460Z,68.16
2023-04-24T18:54:05.468Z,68.19
2023-04-24T18:55:05.474Z,67.57
2023-04-24T18:56:05.438Z,68.70
2023-04-24T18:57:05.446Z,69.11
2023-04-24T18:58:05.420Z,68.84
2023-04-24T18:59:05.418Z,68.63
2023-04-24T19:00:05.423Z,68.84
2023-04-24T19:01:07.513Z,69.34
2023-04-24T19:02:05.453Z,68.84
2023-04-24T19:03:05.554Z,69.34
2023-04-24T19:04:05.396Z,69.55
2023-04-24T19:05:05.366Z,69.04
2023-04-24T19:06:05.380Z,69.14
2023-04-24T19:07:05.368Z,69.27
2023-04-24T19:08:05.356Z,69.55
2023-04-24T19:09:05.336Z,69.17
2023-04-24T19:10:05.329Z,69.89
2023-04-24T19:11:05.329Z,69.58
2023-04-24T19:12:05.311Z,69.27
2023-04-24T19:13:05.428Z,69.89
2023-04-24T19:14:05.298Z,71.12
2023-04-24T19:15:05.355Z,69.99
2023-04-24T19:16:05.299Z,70.53
2023-04-24T19:17:05.274Z,70.43
2023-04-24T19:18:05.333Z,70.50
2023-04-24T19:19:05.885Z,70.84
2023-04-24T19:20:05.254Z,71.04
2023-04-24T19:21:05.254Z,70.94
2023-04-24T19:22:05.234Z,71.04
2023-04-24T19:23:05.225Z,70.91
2023-04-24T19:24:05.278Z,70.81
2023-04-24T19:25:05.449Z,71.12
2023-04-24T19:26:05.220Z,70.81
2023-04-24T19:27:05.195Z,71.12
2023-04-24T19:28:05.187Z,71.15
2023-04-24T19:29:05.182Z,71.01
2023-04-24T19:30:05.204Z,71.12
2023-04-24T19:31:05.161Z,71.22
2023-04-24T19:32:05.206Z,71.01
2023-04-24T19:33:05.211Z,71.12
2023-04-24T19:34:05.152Z,72.24
2023-04-24T19:35:05.134Z,71.73
2023-04-24T19:36:05.127Z,72.24
2023-04-24T19:37:05.123Z,71.62
2023-04-24T19:38:05.110Z,72.48
2023-04-24T19:39:05.104Z,71.86
2023-04-24T19:40:05.102Z,72.89
2023-04-24T19:41:05.089Z,72.78
2023-04-24T19:42:07.139Z,72.58
2023-04-24T19:43:05.093Z,72.48
2023-04-24T19:44:05.066Z,72.89
2023-04-24T19:45:05.059Z,71.86
2023-04-24T19:46:05.109Z,72.11
2023-04-24T19:47:05.042Z,72.72
2023-04-24T19:48:05.083Z,72.61
2023-04-24T19:49:05.028Z,72.31
2023-04-24T19:50:05.022Z,72.61
2023-04-24T19:51:05.025Z,72.41
2023-04-24T19:52:05.007Z,73.03
2023-04-24T19:54:47.768Z,73.13
2023-04-24T19:55:47.707Z,73.44
2023-04-24T19:57:40.823Z,73.13
2023-04-24T19:58:40.815Z,72.41
2023-04-24T20:00:44.801Z,73.23
2023-04-24T20:01:44.794Z,72.52
2023-04-24T20:03:48.897Z,73.13
2023-04-24T20:04:49.117Z,72.61
2023-04-24T20:06:52.767Z,72.92
2023-04-24T20:07:52.753Z,73.85
2023-04-24T20:09:56.750Z,73.85
2023-04-24T20:10:56.730Z,73.57
2023-04-24T20:13:00.722Z,74.19
2023-04-24T20:14:00.709Z,74.60
2023-04-24T20:16:04.724Z,74.29
2023-04-24T20:17:04.677Z,74.39
2023-04-24T20:19:08.666Z,75.15
2023-04-24T20:20:08.681Z,75.24
2023-04-24T20:22:13.388Z,75.24
2023-04-24T20:23:12.636Z,75.04
2023-04-24T20:25:06.323Z,75.79
2023-04-24T20:26:05.922Z,75.49
2023-04-24T20:28:09.920Z,75.59
2023-04-24T20:29:09.898Z,75.56
2023-04-24T20:31:13.926Z,75.79
2023-04-24T20:32:13.865Z,75.79
2023-04-24T20:34:06.776Z,76.10
2023-04-24T20:35:06.762Z,75.45
2023-04-24T20:37:10.751Z,75.35
2023-04-24T20:38:10.731Z,75.45
2023-04-24T20:40:14.749Z,75.01
2023-04-24T20:41:14.712Z,74.90
2023-04-24T20:43:18.717Z,74.90
2023-04-24T20:44:18.715Z,75.01
2023-04-24T20:46:22.774Z,74.90
2023-04-24T20:47:22.734Z,74.80
2023-04-24T20:49:26.689Z,74.70
2023-04-24T20:50:26.675Z,75.11
2023-04-24T20:52:19.775Z,74.90
2023-04-24T20:53:19.762Z,75.01
2023-04-24T20:55:12.928Z,74.80
2023-04-24T20:56:12.849Z,75.11
2023-04-24T20:58:16.832Z,75.93
2023-04-24T20:59:16.808Z,75.86
2023-04-24T21:01:20.817Z,76.37
2023-04-24T21:02:20.804Z,76.17
2023-04-24T21:04:13.683Z,77.09
2023-04-24T21:05:13.653Z,76.99
2023-04-24T21:07:06.758Z,76.65
2023-04-24T21:08:06.841Z,76.34
2023-04-24T21:10:10.750Z,76.95
2023-04-24T21:11:10.728Z,76.95
2023-04-24T21:13:03.829Z,76.89
2023-04-24T21:14:03.813Z,77.20
2023-04-24T21:16:07.882Z,76.99
2023-04-24T21:17:07.805Z,77.20
2023-04-24T21:19:11.794Z,78.36
2023-04-24T21:20:11.777Z,78.56
2023-04-24T21:22:04.869Z,78.97
2023-04-24T21:23:04.851Z,78.87
2023-04-24T21:25:08.860Z,79.28
2023-04-24T21:26:08.837Z,78.97
2023-04-24T21:28:12.840Z,78.97
2023-04-24T21:29:12.821Z,79.01
2023-04-24T21:31:16.847Z,78.87
2023-04-24T21:32:16.971Z,78.77
2023-04-24T21:34:09.749Z,79.69
2023-04-24T21:35:09.728Z,79.80
2023-04-24T21:36:09.730Z,79.69
2023-04-24T21:37:09.709Z,79.93
2023-04-24T21:38:09.697Z,80.14
2023-04-24T21:39:09.697Z,79.83
2023-04-24T21:40:09.686Z,80.04
2023-04-24T21:41:09.673Z,80.65
2023-04-24T21:42:09.671Z,80.55
2023-04-24T21:43:09.654Z,80.62
2023-04-24T21:44:09.646Z,80.65
2023-04-24T21:45:09.637Z,80.55
2023-04-24T21:46:09.669Z,80.92
2023-04-24T21:47:09.620Z,80.82
2023-04-24T21:48:09.645Z,80.31
2023-04-24T21:49:09.610Z,80.62
2023-04-24T21:50:09.595Z,80.62
2023-04-24T21:51:09.585Z,80.41
2023-04-24T21:52:09.585Z,80.62
2023-04-24T21:53:09.575Z,80.51
2023-04-24T21:54:09.665Z,80.21
2023-04-24T21:55:09.573Z,80.00
2023-04-24T21:56:09.551Z,80.21
2023-04-24T21:57:09.538Z,80.10
2023-04-24T21:58:09.530Z,80.62
2023-04-24T21:59:09.529Z,80.72
2023-04-24T22:00:09.521Z,80.41
2023-04-24T22:01:09.635Z,80.68
2023-04-24T22:02:09.529Z,80.21
2023-04-24T22:03:09.633Z,80.92
2023-04-24T22:04:09.688Z,81.13
2023-04-24T22:05:09.476Z,80.92
2023-04-24T22:06:09.471Z,81.54
2023-04-24T22:07:09.455Z,81.74
2023-04-24T22:08:09.450Z,81.74
2023-04-24T22:09:09.439Z,82.05
2023-04-24T22:10:09.431Z,81.64
2023-04-24T22:11:19.899Z,81.95
2023-04-24T22:12:09.470Z,81.74
2023-04-24T22:13:09.408Z,81.64
2023-04-24T22:14:09.399Z,82.36
2023-04-24T22:15:09.405Z,82.15
2023-04-24T22:16:09.406Z,81.64
2023-04-24T22:17:09.376Z,81.95
2023-04-24T22:18:09.546Z,82.05
2023-04-24T22:19:09.356Z,82.05
2023-04-24T22:20:09.358Z,81.95
2023-04-24T22:21:09.340Z,82.73
2023-04-24T22:22:09.329Z,82.67
2023-04-24T22:23:09.329Z,82.26
2023-04-24T22:24:09.314Z,81.71
2023-04-24T22:25:09.306Z,81.95
2023-04-24T22:26:09.299Z,82.67
2023-04-24T22:27:09.303Z,82.26
2023-04-24T22:28:09.281Z,81.60
2023-04-24T22:29:09.281Z,81.50
2023-04-24T22:30:09.272Z,81.71
2023-04-24T22:31:09.294Z,81.91
2023-04-24T22:32:09.245Z,81.71
2023-04-24T22:33:09.279Z,81.91
2023-04-24T22:34:09.237Z,81.71
2023-04-24T22:35:09.217Z,81.54
2023-04-24T22:36:09.211Z,81.43
2023-04-24T22:37:09.202Z,81.43
2023-04-24T22:38:09.188Z,81.64
2023-04-24T22:39:09.186Z,81.43
2023-04-24T22:40:09.181Z,81.43
2023-04-24T22:41:09.168Z,82.15
2023-04-24T22:42:09.164Z,81.78
2023-04-24T22:43:09.154Z,82.19
2023-04-24T22:44:09.143Z,82.50
2023-04-24T22:45:09.133Z,82.19
2023-04-24T22:46:09.140Z,82.81
2023-04-24T22:47:09.123Z,82.91
2023-04-24T22:48:09.158Z,82.40
2023-04-24T22:49:09.153Z,82.40
2023-04-24T22:50:09.099Z,83.12
2023-04-24T22:51:09.088Z,83.12
2023-04-24T22:52:09.084Z,82.29
2023-04-24T22:53:09.064Z,82.50
2023-04-24T22:54:09.056Z,82.19
2023-04-24T22:55:09.047Z,81.99
2023-04-24T22:56:09.041Z,81.74
2023-04-24T22:57:09.035Z,81.88
2023-04-24T22:58:09.074Z,81.99
2023-04-24T22:59:09.013Z,81.68
2023-04-24T23:00:09.005Z,81.88
2023-04-24T23:01:09.053Z,82.54
2023-04-24T23:02:09.104Z,82.50
2023-04-24T23:03:09.125Z,82.70
2023-04-24T23:04:09.038Z,82.75
2023-04-24T23:05:08.972Z,83.12
2023-04-24T23:06:08.955Z,83.32
2023-04-24T23:07:08.954Z,83.42
2023-04-24T23:08:08.941Z,83.46
2023-04-24T23:09:08.933Z,83.94
2023-04-24T23:10:08.922Z,83.56
2023-04-24T23:11:08.910Z,83.12
2023-04-24T23:12:08.917Z,83.53
2023-04-24T23:13:08.895Z,83.12
2023-04-24T23:14:08.892Z,83.12
2023-04-24T23:15:08.889Z,83.32
2023-04-24T23:16:08.895Z,83.22
2023-04-24T23:17:08.870Z,82.46
2023-04-24T23:18:08.860Z,82.97
2023-04-24T23:19:08.847Z,82.56
2023-04-24T23:20:08.836Z,82.05
2023-04-24T23:21:08.841Z,81.54
2023-04-24T23:22:08.819Z,81.23
2023-04-24T23:23:08.813Z,81.95
2023-04-24T23:24:08.801Z,81.13
2023-04-24T23:25:08.817Z,80.92
2023-04-24T23:26:08.801Z,81.23
2023-04-24T23:27:08.896Z,80.41
2023-04-24T23:28:08.773Z,80.21
2023-04-24T23:29:08.763Z,80.72
2023-04-24T23:30:08.765Z,80.31
2023-04-24T23:31:08.745Z,80.72
2023-04-24T23:32:08.786Z,80.41
2023-04-24T23:33:08.797Z,80.31
2023-04-24T23:34:08.727Z,80.21
2023-04-24T23:35:08.810Z,80.31
2023-04-24T23:36:08.704Z,80.31
2023-04-24T23:37:08.692Z,79.90
2023-04-24T23:38:08.790Z,79.28
2023-04-24T23:39:08.747Z,79.18
2023-04-24T23:40:08.670Z,79.59
2023-04-24T23:41:08.670Z,79.69
2023-04-24T23:42:08.651Z,79.69
2023-04-24T23:43:08.892Z,79.01
2023-04-24T23:44:08.640Z,78.81
2023-04-24T23:45:08.628Z,79.63
2023-04-24T23:46:08.659Z,79.63
2023-04-24T23:47:08.608Z,80.14
2023-04-24T23:48:08.626Z,79.77
2023-04-24T23:49:08.611Z,80.28
2023-04-24T23:50:08.599Z,80.28
2023-04-24T23:51:08.572Z,80.49
2023-04-24T23:52:08.570Z,80.69
2023-04-24T23:53:08.562Z,80.28
2023-04-24T23:54:08.582Z,80.32
2023-04-24T23:55:08.550Z,80.18
2023-04-24T23:56:08.550Z,80.28
2023-04-24T23:57:08.520Z,80.79
2023-04-24T23:58:08.525Z,80.38
2023-04-24T23:59:08.510Z,80.79
